MASCOMA R @ MASCOMA: From 01/08/2022 22:00 to 01/23/2022 05:00

Date STAGE [FT] FLOW [CFS] LAKE ELEVATION [FT] PRECIPITATION INCREMENT [IN] AIR TEMPERATURE [F]
01/22/2022 22:00 2.50 93.5 747.48 0.00 3.7
01/22/2022 21:00 2.50 93.5 747.47 0.00 2.7
01/22/2022 20:00 2.50 93.5 747.47 0.00 4.9
01/22/2022 19:00 2.50 93.5 747.47 0.00 6.5
01/22/2022 18:00 2.51 95.2 747.47 0.00 7.0
01/22/2022 17:00 2.50 93.5 747.47 0.00 9.6
01/22/2022 16:00 2.50 93.5 747.47 0.00 11.8
01/22/2022 15:00 2.50 93.5 747.47 0.00 17.0
01/22/2022 14:00 2.51 95.2 747.47 0.00 13.4
01/22/2022 13:00 2.51 95.2 747.47 0.00 10.7
01/22/2022 12:00 2.51 95.2 747.47 0.00 8.7
01/22/2022 11:00 2.51 95.2 747.47 0.00 0.0
01/22/2022 10:00 2.51 95.2 747.47 0.00 -6.2
01/22/2022 09:00 2.51 95.2 747.47 0.00 -12.5
01/22/2022 08:00 2.51 95.2 747.47 0.00 -16.1
01/22/2022 07:00 2.51 95.2 747.47 0.00 -17.6
01/22/2022 06:00 2.51 95.2 747.47 0.00 -16.4
01/22/2022 05:00 2.52 96.9 747.47 0.00 -16.1
01/22/2022 04:00 2.52 96.9 747.47 0.00 -15.3
01/22/2022 03:00 2.52 96.9 747.46 0.00 -13.4
01/22/2022 02:00 2.53 98.6 747.46 0.00 -12.0
01/22/2022 01:00 2.53 98.6 747.46 0.00 -10.8
01/22/2022 00:00 2.53 98.6 747.46 0.00 -5.9
01/21/2022 23:00 2.54 100.3 747.46 0.00 -4.5
01/21/2022 22:00 2.53 98.6 747.46 0.00 -1.5
01/21/2022 21:00 2.53 98.6 747.46 0.00 -1.0
01/21/2022 20:00 2.54 100.3 747.46 0.00 0.9
01/21/2022 19:00 2.53 98.6 747.46 0.00 1.7
01/21/2022 18:00 2.53 98.6 747.46 0.00 4.8
01/21/2022 17:00 2.52 96.9 747.46 0.00 7.4
01/21/2022 16:00 2.52 96.9 747.46 0.00 12.7
01/21/2022 15:00 2.51 95.2 747.46 0.00 16.8
01/21/2022 14:00 2.52 96.9 747.45 0.00 18.3
01/21/2022 13:00 2.53 98.6 747.45 0.00 16.1
01/21/2022 12:00 2.54 100.3 747.45 0.00 14.2
01/21/2022 11:00 2.55 102.0 747.45 0.00 11.6
01/21/2022 10:00 2.55 102.0 747.45 0.00 5.4
01/21/2022 09:00 2.55 102.0 747.45 0.00 3.6
01/21/2022 08:00 2.55 102.0 747.45 0.00 1.0
01/21/2022 07:00 2.71 133.3 747.45 0.00 -4.8
01/21/2022 06:00 2.71 133.3 747.45 0.00 -3.5
01/21/2022 05:00 2.72 135.6 747.45 0.00 -3.1
01/21/2022 04:00 2.72 135.6 747.46 0.00 -2.1
01/21/2022 03:00 2.72 135.6 747.46 0.00 -1.0
01/21/2022 02:00 2.72 135.6 747.46 0.00 -3.3
01/21/2022 01:00 2.73 137.9 747.46 0.00 0.0
01/21/2022 00:00 2.72 135.6 747.46 0.00 2.5
01/20/2022 23:00 2.72 135.6 747.46 0.00 4.8
01/20/2022 22:00 2.72 135.6 747.47 0.00 6.4
01/20/2022 21:00 2.72 135.6 747.47 0.00 8.1
01/20/2022 20:00 2.72 135.6 747.47 0.00 9.9
01/20/2022 19:00 2.72 135.6 747.47 0.00 12.2
01/20/2022 18:00 2.72 135.6 747.48 0.00 14.2
01/20/2022 17:00 2.73 137.9 747.47 0.00 16.3
01/20/2022 16:00 2.72 135.6 747.48 0.00 19.5
01/20/2022 15:00 2.72 135.6 747.48 0.00 24.6
01/20/2022 14:00 2.72 135.6 747.48 0.00 27.5
01/20/2022 13:00 2.72 135.6 747.48 0.00 26.0
01/20/2022 12:00 2.73 137.9 747.48 0.00 23.1
01/20/2022 11:00 2.73 137.9 747.48 0.00 24.9
01/20/2022 10:00 2.72 135.6 747.48 0.00 22.6
01/20/2022 09:00 2.72 135.6 747.48 0.00 24.9
01/20/2022 08:00 2.73 137.9 747.49 0.00 27.3
01/20/2022 07:00 2.72 135.6 747.49 0.00 29.8
01/20/2022 06:00 2.72 135.6 747.50 0.00 32.2
01/20/2022 05:00 2.72 135.6 747.50 0.00 34.4
01/20/2022 04:00 2.72 135.6 747.50 0.00 35.3
01/20/2022 03:00 2.72 135.6 747.50 0.00 33.2
01/20/2022 02:00 2.72 135.6 747.50 0.00 32.6
01/20/2022 01:00 2.72 135.6 747.50 0.00 30.0
01/20/2022 00:00 2.72 135.6 747.50 0.00 26.9
01/19/2022 23:00 2.72 135.6 747.50 0.00 25.7
01/19/2022 22:00 2.72 135.6 747.50 0.00 24.1
01/19/2022 21:00 2.73 137.9 747.50 0.00 28.0
01/19/2022 20:00 2.73 137.9 747.50 0.00 30.6
01/19/2022 19:00 2.73 137.9 747.50 0.00 31.4
01/19/2022 18:00 2.73 137.9 747.51 0.00 34.2
01/19/2022 17:00 2.73 137.9 747.51 0.00 34.7
01/19/2022 16:00 2.72 135.6 747.51 0.00 35.1
01/19/2022 15:00 2.72 135.6 747.51 0.00 35.2
01/19/2022 14:00 2.72 135.6 747.51 0.00 35.2
01/19/2022 13:00 2.72 135.6 747.51 0.00 34.3
01/19/2022 12:00 2.72 135.6 747.51 0.00 33.0
01/19/2022 11:00 2.72 135.6 747.51 0.00 26.7
01/19/2022 10:00 2.72 135.6 747.52 0.00 14.5
01/19/2022 09:00 2.74 140.3 747.52 0.00 6.8
01/19/2022 08:00 2.74 140.3 747.53 0.00 4.8
01/19/2022 07:00 2.74 140.3 747.53 0.00 0.6
01/19/2022 06:00 2.75 142.7 747.53 0.00 -0.9
01/19/2022 05:00 2.76 145.1 747.53 0.00 -2.9
01/19/2022 04:00 2.76 145.1 747.53 0.00 -4.3
01/19/2022 03:00 2.76 145.1 747.53 0.00 -5.8
01/19/2022 02:00 2.76 145.1 747.53 0.00 0.7
01/19/2022 01:00 2.76 145.1 747.53 0.00 0.7
01/19/2022 00:00 2.76 145.1 747.53 0.00 2.8
01/18/2022 23:00 2.76 145.1 747.53 0.00 4.3
01/18/2022 22:00 2.76 145.1 747.53 0.00 6.2
01/18/2022 21:00 2.76 145.1 747.53 0.00 8.1
01/18/2022 20:00 2.75 142.7 747.53 0.00 9.6
01/18/2022 19:00 2.75 142.7 747.53 0.00 11.1
01/18/2022 18:00 2.75 142.7 747.53 0.00 12.9
01/18/2022 17:00 2.76 145.1 747.54 0.00 14.4
01/18/2022 16:00 2.75 142.7 747.54 0.00 17.3
01/18/2022 15:00 2.75 142.7 747.54 0.00 21.4
01/18/2022 14:00 2.74 140.3 747.53 0.00 22.7
01/18/2022 13:00 2.74 140.3 747.53 0.00 19.1
01/18/2022 12:00 2.74 140.3 747.54 0.00 20.9
01/18/2022 11:00 2.74 140.3 747.54 0.00 22.6
01/18/2022 10:00 2.74 140.3 747.54 0.00 20.6
01/18/2022 09:00 2.73 137.9 747.54 0.00 19.4
01/18/2022 08:00 2.72 135.6 747.54 0.00 17.7
01/18/2022 07:00 2.73 137.9 747.54 0.00 18.3
01/18/2022 06:00 2.74 140.3 747.55 0.00 19.4
01/18/2022 05:00 2.74 140.3 747.55 0.00 20.6
01/18/2022 04:00 2.74 140.3 747.55 0.00 21.7
01/18/2022 03:00 2.74 140.3 747.55 0.00 24.6
01/18/2022 02:00 2.74 140.3 747.55 0.00 26.3
01/18/2022 01:00 2.73 137.9 747.55 0.00 27.9
01/18/2022 00:00 2.73 137.9 747.55 0.00 28.9
01/17/2022 23:00 2.73 137.9 747.55 0.00 30.9
01/17/2022 22:00 2.72 135.6 747.55 0.00 33.0
01/17/2022 21:00 2.72 135.6 747.55 0.00 33.7
01/17/2022 20:00 2.71 133.3 747.55 0.00 33.6
01/17/2022 19:00 2.71 133.3 747.55 0.00 33.4
01/17/2022 18:00 2.71 133.3 747.55 0.00 33.2
01/17/2022 17:00 2.71 133.3 747.56 0.01 32.8
01/17/2022 16:00 2.71 133.3 747.56 0.03 32.8
01/17/2022 15:00 2.71 133.3 747.56 0.07 32.5
01/17/2022 14:00 2.71 133.3 747.56 0.04 32.1
01/17/2022 13:00 2.70 131.0 747.56 0.00 32.0
01/17/2022 12:00 2.69 128.9 747.55 0.00 31.9
01/17/2022 11:00 2.71 133.3 747.55 0.00 31.0
01/17/2022 10:00 2.71 133.3 747.55 0.00 30.5
01/17/2022 09:00 2.71 133.3 747.55 0.00 31.1
01/17/2022 08:00 2.74 140.3 747.55 0.00 29.7
01/17/2022 07:00 2.73 137.9 747.53 0.00 27.5
01/17/2022 06:00 2.73 137.9 747.52 0.00 26.3
01/17/2022 05:00 2.72 135.6 747.51 0.00 26.0
01/17/2022 04:00 2.72 135.6 747.51 0.00 24.2
01/17/2022 03:00 2.73 137.9 747.51 0.00 22.2
01/17/2022 02:00 2.73 137.9 747.51 0.00 19.6
01/17/2022 01:00 2.73 137.9 747.51 0.00 19.0
01/17/2022 00:00 2.72 135.6 747.52 0.00 18.7
01/16/2022 23:00 2.74 140.3 747.52 0.00 18.7
01/16/2022 22:00 2.74 140.3 747.51 0.00 15.1
01/16/2022 21:00 2.74 140.3 747.51 0.00 13.4
01/16/2022 20:00 2.75 142.7 747.52 0.00 11.1
01/16/2022 19:00 2.75 142.7 747.52 0.00 10.9
01/16/2022 18:00 2.75 142.7 747.53 0.00 11.3
01/16/2022 17:00 2.75 142.7 747.53 0.00 12.8
01/16/2022 16:00 2.75 142.7 747.53 0.00 18.3
01/16/2022 15:00 2.75 142.7 747.53 0.00 15.2
01/16/2022 14:00 2.74 140.3 747.53 0.00 21.1
01/16/2022 13:00 2.77 147.5 747.53 0.00 15.9
01/16/2022 12:00 2.78 150.0 747.54 0.00 6.9
01/16/2022 11:00 2.78 150.0 747.54 0.00 6.9
01/16/2022 10:00 2.78 150.0 747.54 0.00 2.0
01/16/2022 09:00 2.78 150.0 747.55 0.00 3.1
01/16/2022 08:00 2.78 150.0 747.55 0.00 -4.5
01/16/2022 07:00 2.78 150.0 747.55 0.00 -8.4
01/16/2022 06:00 2.78 150.0 747.55 0.00 -8.4
01/16/2022 05:00 2.78 150.0 747.55 0.00 -7.8
01/16/2022 04:00 2.78 150.0 747.56 0.00 -7.6
01/16/2022 03:00 2.78 150.0 747.56 0.00 -6.7
01/16/2022 02:00 2.78 150.0 747.56 0.00 -7.3
01/16/2022 01:00 2.78 150.0 747.57 0.00 -6.5
01/16/2022 00:00 2.78 150.0 747.57 0.00 -5.6
01/15/2022 23:00 2.78 150.0 747.58 0.00 -4.2
01/15/2022 22:00 2.78 150.0 747.58 0.00 -4.3
01/15/2022 21:00 2.79 152.5 747.58 0.00 -3.5
01/15/2022 20:00 2.79 152.5 747.58 0.00 -2.5
01/15/2022 19:00 2.80 155.0 747.59 0.00 -1.6
01/15/2022 18:00 2.80 155.0 747.59 0.00 -0.2
01/15/2022 17:00 2.79 152.5 747.59 0.00 1.1
01/15/2022 16:00 2.79 152.5 747.59 0.00 3.7
01/15/2022 15:00 2.80 155.0 747.60 0.00 6.5
01/15/2022 14:00 2.80 155.0 747.60 0.00 7.6
01/15/2022 13:00 2.81 157.4 747.60 0.00 7.5
01/15/2022 12:00 2.80 155.0 747.60 0.00 7.2
01/15/2022 11:00 2.81 157.4 747.60 0.00 4.2
01/15/2022 10:00 2.81 157.4 747.61 0.00 2.3
01/15/2022 09:00 2.81 157.4 747.61 0.00 -1.3
01/15/2022 08:00 2.81 157.4 747.61 0.00 -5.3
01/15/2022 07:00 2.83 162.3 747.62 0.00 -8.0
01/15/2022 06:00 2.83 162.3 747.62 0.00 -7.3
01/15/2022 05:00 2.83 162.3 747.62 0.00 -6.1
01/15/2022 04:00 2.83 162.3 747.62 0.00 -4.5
01/15/2022 03:00 2.83 162.3 747.62 0.00 -3.9
01/15/2022 02:00 2.85 167.2 747.63 0.00 -3.4
01/15/2022 01:00 2.84 164.7 747.63 0.00 -1.9
01/15/2022 00:00 2.83 162.3 747.63 0.00 -0.1
01/14/2022 23:00 2.86 169.7 747.63 0.00 1.9
01/14/2022 22:00 2.83 162.3 747.63 0.00 4.1
01/14/2022 21:00 2.85 167.2 747.64 0.00 5.7
01/14/2022 20:00 2.84 164.7 747.64 0.00 9.2
01/14/2022 19:00 2.84 164.7 747.64 0.00 12.5
01/14/2022 18:00 2.85 167.2 747.64 0.00 15.3
01/14/2022 17:00 2.85 167.2 747.64 0.00 18.7
01/14/2022 16:00 2.83 162.3 747.64 0.00 22.2
01/14/2022 15:00 2.85 167.2 747.64 0.00 26.9
01/14/2022 14:00 2.85 167.2 747.64 0.00 28.0
01/14/2022 13:00 2.84 164.7 747.65 0.00 28.6
01/14/2022 12:00 2.84 164.7 747.64 0.00 30.0
01/14/2022 11:00 2.85 167.2 747.65 0.00 32.1
01/14/2022 10:00 2.85 167.2 747.65 0.00 32.4
01/14/2022 09:00 2.86 169.7 747.65 0.00 32.5
01/14/2022 08:00 2.85 167.2 747.65 0.00 29.0
01/14/2022 07:00 2.85 167.2 747.65 0.00 27.1
01/14/2022 06:00 2.84 164.7 747.65 0.00 26.0
01/14/2022 05:00 2.85 167.2 747.65 0.00 25.6
01/14/2022 04:00 2.85 167.2 747.65 0.00 24.1
01/14/2022 03:00 2.85 167.2 747.65 0.00 25.0
01/14/2022 02:00 2.86 169.7 747.66 0.00 25.0
01/14/2022 01:00 2.86 169.7 747.65 0.00 25.4
01/14/2022 00:00 2.85 167.2 747.65 0.00 24.4
01/13/2022 23:00 2.85 167.2 747.66 0.00 26.6
01/13/2022 22:00 2.85 167.2 747.65 0.00 25.9
01/13/2022 21:00 2.84 164.7 747.65 0.00 26.8
01/13/2022 20:00 2.85 167.2 747.65 0.00 27.9
01/13/2022 19:00 2.85 167.2 747.65 0.00 32.3
01/13/2022 18:00 2.84 164.7 747.65 0.00 33.1
01/13/2022 17:00 2.85 167.2 747.65 0.00 32.5
01/13/2022 16:00 2.85 167.2 747.65 0.00 33.2
01/13/2022 15:00 2.85 167.2 747.66 0.00 35.0
01/13/2022 14:00 2.85 167.2 747.66 0.00 33.9
01/13/2022 13:00 2.85 167.2 747.66 0.00 32.0
01/13/2022 12:00 2.86 169.7 747.66 0.00 30.1
01/13/2022 11:00 2.86 169.7 747.66 0.00 27.4
01/13/2022 10:00 2.86 169.7 747.66 0.00 27.2
01/13/2022 09:00 2.86 169.7 747.66 0.00 25.3
01/13/2022 08:00 2.86 169.7 747.66 0.00 24.3
01/13/2022 07:00 2.86 169.7 747.67 0.00 23.9
01/13/2022 06:00 2.87 172.3 747.67 0.00 23.7
01/13/2022 05:00 2.87 172.3 747.67 0.00 23.4
01/13/2022 04:00 2.87 172.3 747.67 0.00 23.0
01/13/2022 03:00 2.86 169.7 747.67 0.00 22.7
01/13/2022 02:00 2.87 172.3 747.68 0.00 22.6
01/13/2022 01:00 2.87 172.3 747.68 0.00 22.6
01/13/2022 00:00 2.87 172.3 747.68 0.00 22.7
01/12/2022 23:00 2.87 172.3 747.68 0.00 22.6
01/12/2022 22:00 2.87 172.3 747.68 0.00 22.5
01/12/2022 21:00 2.88 174.8 747.68 0.00 22.4
01/12/2022 20:00 2.88 174.8 747.68 0.00 22.4
01/12/2022 19:00 2.88 174.8 747.68 0.00 22.4
01/12/2022 18:00 2.88 174.8 747.69 0.00 22.5
01/12/2022 17:00 2.88 174.8 747.69 0.00 22.1
01/12/2022 16:00 2.88 174.8 747.69 0.00 22.0
01/12/2022 15:00 2.88 174.8 747.70 0.00 19.9
01/12/2022 14:00 2.87 172.3 747.70 0.00 18.5
01/12/2022 13:00 2.87 172.0 747.70 0.00 17.3
01/12/2022 12:00 2.86 169.7 -- 0.00 16.2
01/12/2022 11:00 2.87 172.3 -- 0.00 14.7
01/12/2022 10:00 2.86 169.7 -- 0.00 10.7
01/12/2022 09:00 2.88 174.8 -- 0.00 7.6
01/12/2022 08:00 2.89 177.4 -- 0.00 5.0
01/12/2022 07:00 2.89 177.4 -- 0.00 5.3
01/12/2022 06:00 2.89 177.4 -- 0.00 5.8
01/12/2022 05:00 2.89 177.4 -- 0.00 4.9
01/12/2022 04:00 2.91 182.2 -- 0.00 2.3
01/12/2022 03:00 2.92 184.6 -- 0.00 0.6
01/12/2022 02:00 2.92 184.6 -- 0.00 -0.7
01/12/2022 01:00 2.92 184.6 -- 0.00 -2.8
01/12/2022 00:00 2.92 184.6 -- 0.00 -5.1
01/11/2022 23:00 2.93 187.2 -- 0.00 -4.3
01/11/2022 22:00 2.95 193.2 -- 0.00 -3.2
01/11/2022 21:00 2.96 196.6 -- 0.00 -1.6
01/11/2022 20:00 2.96 196.6 -- 0.00 -0.7
01/11/2022 19:00 2.95 193.2 -- 0.00 0.4
01/11/2022 18:00 2.96 196.6 -- 0.00 3.2
01/11/2022 17:00 2.97 200.4 -- 0.00 4.6
01/11/2022 16:00 2.97 200.4 -- 0.00 6.1
01/11/2022 15:00 2.97 200.4 -- 0.00 8.0
01/11/2022 14:00 2.97 200.4 -- 0.00 7.7
01/11/2022 13:00 2.98 204.6 -- 0.00 9.7
01/11/2022 12:00 2.98 204.6 -- 0.00 5.5
01/11/2022 11:00 2.97 200.4 -- 0.00 5.3
01/11/2022 10:00 2.97 200.4 -- 0.00 5.5
01/11/2022 09:00 2.98 204.6 -- 0.00 1.4
01/11/2022 08:00 2.98 204.6 -- 0.00 -0.5
01/11/2022 07:00 2.99 209.4 -- 0.00 -2.0
01/11/2022 06:00 3.00 215.0 -- 0.00 -0.7
01/11/2022 05:00 3.00 215.0 -- 0.00 0.5
01/11/2022 04:00 3.01 218.6 -- 0.00 2.6
01/11/2022 03:00 3.01 218.6 -- 0.00 5.6
01/11/2022 02:00 3.01 218.6 -- 0.00 7.0
01/11/2022 01:00 3.01 218.6 -- 0.00 9.1
01/11/2022 00:00 3.01 218.6 -- 0.00 10.8
01/10/2022 23:00 3.00 215.0 -- 0.00 12.5
01/10/2022 22:00 3.00 215.0 -- 0.00 14.5
01/10/2022 21:00 3.01 218.6 -- 0.00 15.1
01/10/2022 20:00 3.01 218.6 -- 0.00 15.7
01/10/2022 19:00 3.01 218.6 -- 0.00 16.5
01/10/2022 18:00 3.00 215.0 -- 0.00 17.5
01/10/2022 17:00 3.01 218.6 -- 0.00 18.3
01/10/2022 16:00 3.01 218.6 -- 0.00 19.9
01/10/2022 15:00 3.03 226.0 -- 0.00 20.8
01/10/2022 14:00 3.03 226.0 747.78 0.00 22.4
01/10/2022 13:00 3.03 226.0 747.78 0.00 23.6
01/10/2022 12:00 3.03 226.0 747.78 0.00 25.8
01/10/2022 11:00 3.02 222.3 747.78 0.00 26.5
01/10/2022 10:00 3.03 226.0 747.79 0.00 25.8
01/10/2022 09:00 3.03 226.0 747.79 0.00 26.8
01/10/2022 08:00 3.03 226.0 747.79 0.00 24.5
01/10/2022 07:00 3.03 226.0 747.79 0.00 18.8
01/10/2022 06:00 3.04 229.7 747.79 0.00 20.1
01/10/2022 05:00 3.04 229.7 747.79 0.00 21.7
01/10/2022 04:00 3.04 229.7 747.80 0.00 23.7
01/10/2022 03:00 3.04 229.7 747.80 0.00 25.6
01/10/2022 02:00 3.03 226.0 747.80 0.00 27.1
01/10/2022 01:00 3.03 226.0 747.80 0.00 30.1
01/10/2022 00:00 3.04 229.7 747.81 0.00 33.5
01/09/2022 23:00 3.03 226.0 747.81 0.00 35.5
01/09/2022 22:00 3.03 226.0 747.81 0.00 36.0
01/09/2022 21:00 3.01 218.6 747.81 0.00 35.1
01/09/2022 20:00 3.02 222.3 747.81 0.00 32.3
01/09/2022 19:00 3.03 226.0 747.81 0.00 32.6
01/09/2022 18:00 3.04 229.7 747.81 0.00 33.1
01/09/2022 17:00 3.03 226.0 747.81 0.00 32.9
01/09/2022 16:00 3.04 229.7 747.82 0.00 32.7
01/09/2022 15:00 3.04 229.7 747.82 0.00 32.9
01/09/2022 14:00 3.05 233.3 747.82 0.00 32.4
01/09/2022 13:00 3.06 237.1 747.83 0.00 32.3
01/09/2022 12:00 3.05 233.3 747.83 0.00 30.4
01/09/2022 11:00 3.05 233.3 747.83 0.00 29.6
01/09/2022 10:00 3.07 240.8 747.84 0.00 28.7
01/09/2022 09:00 3.07 240.8 747.84 0.00 25.6
01/09/2022 08:00 3.08 244.5 747.84 0.00 24.6
01/09/2022 07:00 3.08 244.5 747.84 0.00 23.8
01/09/2022 06:00 3.08 244.5 747.85 0.00 22.0
01/09/2022 05:00 3.08 244.5 747.85 0.00 19.3
01/09/2022 04:00 3.10 252.0 747.85 0.00 17.5
01/09/2022 03:00 3.11 255.7 747.86 0.00 16.4
01/09/2022 02:00 3.10 252.0 747.86 0.00 11.4
01/09/2022 01:00 3.11 255.7 747.87 0.00 9.6
01/09/2022 00:00 3.12 259.5 747.87 0.00 9.2
01/08/2022 23:00 -- -- -- -- --
01/08/2022 22:00 -- -- -- -- --